Time;durP1;ratioP1;P1;durP2;ratioP2;P2;SDS_P1;SDS_P2;PMS_P1;PMS_P2;Temp;Humidity;BMP_temperature;BMP_pressure;BME280_temperature;BME280_humidity;BME280_pressure;Samples;Min_cycle;Max_cycle;Signal;HPM_P1;HPM_P2
2023/03/27 00:01:16;;;;;;;;;;;;;;;15.24;30.58;94083.59;5038689;28;19932;-64
2023/03/27 00:03:43;;;;;;;;;;;;;;;15.24;29.52;94087.00;5048713;28;20362;-64
2023/03/27 00:06:15;;;;;;;;;;;;;;;15.37;29.29;94084.56;5048168;28;19931;-65
2023/03/27 00:08:43;;;;;;;;;;;;;;;15.38;29.40;94062.38;5041508;28;19929;-66
2023/03/27 00:11:10;;;;;;;;;;;;;;;15.38;29.47;94070.31;5043349;28;20356;-64
2023/03/27 00:13:37;;;;;;;;;;;;;;;15.46;29.43;94078.28;5035648;28;19927;-65
2023/03/27 00:16:23;;;;;;;;;;;;;;;15.53;29.07;94062.78;5047644;28;19984;-66
2023/03/27 00:18:51;;;;;;;;;;;;;;;15.40;29.91;94071.53;5042335;28;19964;-66
2023/03/27 00:21:19;;;;;;;;;;;;;;;15.47;30.00;94079.06;5037661;28;19924;-66
2023/03/27 00:23:47;;;;;;;;;;;;;;;15.46;29.79;94088.06;5048374;28;19925;-66
2023/03/27 00:26:15;;;;;;;;;;;;;;;15.39;29.33;94087.69;5047484;28;19932;-66
2023/03/27 00:28:41;;;;;;;;;;;;;;;15.35;29.15;94069.03;5041810;28;20385;-65
2023/03/27 00:31:10;;;;;;;;;;;;;;;15.38;30.41;94071.09;5046801;28;20677;-66
2023/03/27 00:33:37;;;;;;;;;;;;;;;15.25;30.20;94070.09;5048638;28;19924;-66
2023/03/27 00:36:04;;;;;;;;;;;;;;;15.27;29.92;94061.09;5047626;28;19924;-66
2023/03/27 00:38:31;;;;;;;;;;;;;;;15.27;30.51;94053.19;5040224;28;19982;-66
2023/03/27 00:40:58;;;;;;;;;;;;;;;15.10;30.70;94054.66;5041491;28;19925;-66
2023/03/27 00:43:32;;;;;;;;;;;;;;;15.23;30.68;94042.47;5047871;28;20292;-65
2023/03/27 00:46:02;;;;;;;;;;;;;;;15.30;30.37;94049.91;5047478;28;19931;-67
2023/03/27 00:48:32;;;;;;;;;;;;;;;15.17;30.60;94055.00;5038451;28;19921;-64
2023/03/27 00:50:58;;;;;;;;;;;;;;;14.99;30.87;94044.66;5037597;28;20281;-65
2023/03/27 00:53:26;;;;;;;;;;;;;;;15.04;30.51;94018.16;5040678;28;20346;-65
2023/03/27 00:55:55;;;;;;;;;;;;;;;15.23;30.94;94016.84;5051063;28;19921;-65
2023/03/27 00:58:25;;;;;;;;;;;;;;;14.85;30.65;94046.59;5051476;28;19924;-65
2023/03/27 01:00:53;;;;;;;;;;;;;;;14.77;30.42;94034.94;5048811;28;19928;-66
2023/03/27 01:03:22;;;;;;;;;;;;;;;14.96;30.60;94043.41;5063935;28;19921;-64
2023/03/27 01:05:51;;;;;;;;;;;;;;;14.90;31.07;94035.94;5044580;28;19925;-66
2023/03/27 01:08:18;;;;;;;;;;;;;;;15.09;30.52;94010.88;5051389;28;20392;-66
2023/03/27 01:10:55;;;;;;;;;;;;;;;14.68;31.07;94031.47;5050843;28;19958;-65
2023/03/27 01:13:39;;;;;;;;;;;;;;;15.05;30.59;93986.19;5042527;28;19925;-65
2023/03/27 01:16:15;;;;;;;;;;;;;;;14.97;31.52;94017.81;5049420;28;20686;-66
2023/03/27 01:19:05;;;;;;;;;;;;;;;15.06;31.18;93995.66;5051106;28;20407;-65
2023/03/27 01:21:57;;;;;;;;;;;;;;;14.90;30.88;94017.47;5047211;28;20399;-66
2023/03/27 01:25:06;;;;;;;;;;;;;;;14.92;31.23;93976.53;5043080;28;19967;-65
2023/03/27 01:27:57;;;;;;;;;;;;;;;14.14;32.28;94008.72;5004346;28;20515;-65
2023/03/27 01:30:37;;;;;;;;;;;;;;;14.64;30.95;93983.03;5002126;28;19925;-65
2023/03/27 01:33:24;;;;;;;;;;;;;;;14.84;31.19;93981.75;5028125;28;20363;-66
2023/03/27 01:35:51;;;;;;;;;;;;;;;14.86;31.46;94000.69;5040908;28;19925;-65
2023/03/27 01:38:21;;;;;;;;;;;;;;;14.86;30.29;93990.91;5041678;28;19960;-65
2023/03/27 01:40:52;;;;;;;;;;;;;;;14.26;32.21;93992.38;5042953;28;19925;-66
2023/03/27 01:43:22;;;;;;;;;;;;;;;14.86;30.73;93993.56;5061377;28;19925;-65
2023/03/27 01:45:51;;;;;;;;;;;;;;;14.53;31.45;93971.19;5048882;28;20373;-65
2023/03/27 01:48:26;;;;;;;;;;;;;;;14.89;31.52;93977.13;5047037;28;19921;-66
2023/03/27 01:50:56;;;;;;;;;;;;;;;14.77;31.46;93965.56;5048164;28;20352;-64
2023/03/27 01:53:33;;;;;;;;;;;;;;;14.90;31.89;93965.50;5047919;28;19925;-64
2023/03/27 01:56:04;;;;;;;;;;;;;;;14.76;31.48;93969.31;5048815;28;19975;-66
2023/03/27 01:58:34;;;;;;;;;;;;;;;14.80;31.64;93960.47;5032768;28;19982;-65
2023/03/27 02:01:03;;;;;;;;;;;;;;;14.70;32.57;93976.56;5045536;28;19999;-66
2023/03/27 02:03:33;;;;;;;;;;;;;;;14.99;31.35;93958.41;5040417;28;19921;-65
2023/03/27 02:06:05;;;;;;;;;;;;;;;15.12;31.59;93957.50;5043939;28;20394;-65
2023/03/27 02:08:37;;;;;;;;;;;;;;;14.89;31.54;93971.84;5047289;28;19960;-64
2023/03/27 02:11:14;;;;;;;;;;;;;;;14.86;32.13;93969.03;5046044;28;20284;-65
2023/03/27 02:13:45;;;;;;;;;;;;;;;14.68;32.32;93962.91;5057300;28;20360;-65
2023/03/27 02:16:18;;;;;;;;;;;;;;;14.52;32.03;93953.84;5048019;28;19921;-66
2023/03/27 02:18:50;;;;;;;;;;;;;;;14.60;31.80;93961.00;5045257;28;20372;-65
2023/03/27 02:21:17;;;;;;;;;;;;;;;14.75;31.65;93952.69;5046794;28;19964;-66
2023/03/27 02:23:44;;;;;;;;;;;;;;;14.90;31.90;93938.34;5043395;28;20448;-66
2023/03/27 02:26:12;;;;;;;;;;;;;;;14.90;32.75;93939.13;5048423;28;19924;-66
2023/03/27 02:28:46;;;;;;;;;;;;;;;14.92;32.22;93926.41;5048624;28;19975;-66
2023/03/27 02:31:13;;;;;;;;;;;;;;;14.80;33.23;93922.78;5046862;28;19933;-66
2023/03/27 02:34:12;;;;;;;;;;;;;;;14.79;33.25;93926.50;5044713;28;20036;-65
2023/03/27 02:37:00;;;;;;;;;;;;;;;14.61;33.32;93930.94;5048073;28;19929;-65
2023/03/27 02:39:57;;;;;;;;;;;;;;;14.60;33.12;93916.19;5022927;28;19925;-67
2023/03/27 02:42:27;;;;;;;;;;;;;;;14.69;32.56;93911.72;5043478;28;19931;-66
2023/03/27 02:45:09;;;;;;;;;;;;;;;13.77;33.59;93908.19;5042478;28;19924;-65
2023/03/27 02:47:41;;;;;;;;;;;;;;;14.05;33.63;93888.59;5047579;28;19925;-65
2023/03/27 02:50:14;;;;;;;;;;;;;;;14.34;33.25;93888.16;5045050;28;20386;-65
2023/03/27 02:52:43;;;;;;;;;;;;;;;14.48;33.45;93873.81;5041357;28;19963;-66
2023/03/27 02:55:15;;;;;;;;;;;;;;;14.40;33.21;93871.13;5045313;28;19928;-65
2023/03/27 02:57:45;;;;;;;;;;;;;;;14.40;32.71;93850.06;5046789;28;19931;-66
2023/03/27 03:00:47;;;;;;;;;;;;;;;14.35;33.57;93853.59;5049680;28;19921;-66
2023/03/27 03:03:30;;;;;;;;;;;;;;;13.26;35.20;93873.56;5040435;28;19928;-66
2023/03/27 03:06:09;;;;;;;;;;;;;;;13.50;35.10;93884.59;5039316;28;19956;-65
2023/03/27 03:08:37;;;;;;;;;;;;;;;13.95;33.91;93876.44;5047843;28;19931;-64
2023/03/27 03:11:09;;;;;;;;;;;;;;;14.36;33.64;93880.72;5046716;28;19939;-66
2023/03/27 03:13:35;;;;;;;;;;;;;;;14.19;33.88;93852.41;5053466;28;19920;-67
2023/03/27 03:16:03;;;;;;;;;;;;;;;14.26;33.54;93826.38;5044715;28;19925;-65
2023/03/27 03:18:31;;;;;;;;;;;;;;;14.17;34.03;93804.50;5045554;28;19948;-65
2023/03/27 03:20:58;;;;;;;;;;;;;;;13.96;33.44;93832.41;5039809;28;20399;-66
2023/03/27 03:23:26;;;;;;;;;;;;;;;13.23;34.07;93841.50;5047939;28;19925;-65
2023/03/27 03:25:55;;;;;;;;;;;;;;;13.62;33.92;93835.63;5047448;28;19982;-63
2023/03/27 03:28:25;;;;;;;;;;;;;;;14.09;33.76;93810.50;5038180;28;19983;-65
2023/03/27 03:30:52;;;;;;;;;;;;;;;14.03;33.29;93804.56;5042074;28;20347;-66
2023/03/27 03:33:20;;;;;;;;;;;;;;;14.29;33.46;93833.72;5047655;28;19952;-64
2023/03/27 03:35:48;;;;;;;;;;;;;;;13.91;32.32;93827.28;5046963;28;19924;-65
2023/03/27 03:38:29;;;;;;;;;;;;;;;14.18;31.40;93814.72;5042315;28;19924;-65
2023/03/27 03:41:10;;;;;;;;;;;;;;;14.32;32.26;93806.78;5039980;28;20011;-64
2023/03/27 03:43:36;;;;;;;;;;;;;;;14.37;32.56;93811.91;5042572;28;19925;-65
2023/03/27 03:46:05;;;;;;;;;;;;;;;14.42;31.80;93817.03;5040635;28;19933;-64
2023/03/27 03:48:32;;;;;;;;;;;;;;;14.29;32.16;93807.34;5039967;28;19975;-66
2023/03/27 03:50:59;;;;;;;;;;;;;;;14.42;31.93;93793.31;5041336;28;19960;-67
2023/03/27 03:53:26;;;;;;;;;;;;;;;14.41;32.02;93804.94;5042797;28;19925;-65
2023/03/27 03:55:54;;;;;;;;;;;;;;;14.34;31.78;93815.16;5041261;28;19964;-64
2023/03/27 03:58:21;;;;;;;;;;;;;;;13.81;32.52;93815.13;5037731;28;19931;-66
2023/03/27 04:01:03;;;;;;;;;;;;;;;14.14;31.36;93805.88;5034647;28;19920;-66
2023/03/27 04:03:42;;;;;;;;;;;;;;;14.47;31.33;93819.50;5043126;28;19921;-64
2023/03/27 04:06:09;;;;;;;;;;;;;;;14.59;31.10;93806.56;5047319;28;19931;-65
2023/03/27 04:08:36;;;;;;;;;;;;;;;14.05;33.02;93796.41;5048991;28;19925;-65
2023/03/27 04:11:03;;;;;;;;;;;;;;;14.55;31.87;93789.78;5048392;28;19979;-66
2023/03/27 04:14:03;;;;;;;;;;;;;;;13.73;33.84;93820.38;5015105;28;19921;-66
2023/03/27 04:16:36;;;;;;;;;;;;;;;13.68;33.16;93809.97;5046736;28;19920;-70
2023/03/27 04:19:17;;;;;;;;;;;;;;;13.42;34.01;93809.00;5047437;28;20299;-66
2023/03/27 04:21:46;;;;;;;;;;;;;;;14.08;33.13;93801.84;5039406;28;19925;-65
2023/03/27 04:24:13;;;;;;;;;;;;;;;14.34;32.71;93799.34;5041323;28;19925;-65
2023/03/27 04:26:45;;;;;;;;;;;;;;;14.32;32.50;93795.44;5047792;28;19925;-65
2023/03/27 04:29:24;;;;;;;;;;;;;;;13.67;33.31;93821.56;5049821;28;19932;-64
2023/03/27 04:31:57;;;;;;;;;;;;;;;14.20;32.51;93798.63;5052286;28;19924;-63
2023/03/27 04:34:56;;;;;;;;;;;;;;;13.35;34.32;93813.91;5002017;28;19920;-67
2023/03/27 04:37:52;;;;;;;;;;;;;;;13.05;34.89;93821.41;5035323;28;20063;-69
2023/03/27 04:40:37;;;;;;;;;;;;;;;14.01;33.42;93805.97;5035015;28;19932;-70
2023/03/27 04:43:04;;;;;;;;;;;;;;;13.80;33.92;93795.16;5045593;28;20445;-69
2023/03/27 04:45:32;;;;;;;;;;;;;;;14.11;33.64;93795.16;5031354;28;19983;-69
2023/03/27 04:47:59;;;;;;;;;;;;;;;13.26;34.67;93799.91;5042984;28;19928;-69
2023/03/27 04:50:28;;;;;;;;;;;;;;;13.95;33.57;93780.84;5050655;28;19924;-68
2023/03/27 04:52:58;;;;;;;;;;;;;;;13.98;34.18;93785.50;5049308;28;20410;-67
2023/03/27 04:55:29;;;;;;;;;;;;;;;14.32;33.38;93780.41;5049758;28;19924;-72
2023/03/27 04:57:58;;;;;;;;;;;;;;;13.70;35.61;93805.19;5048872;28;19925;-66
2023/03/27 05:00:26;;;;;;;;;;;;;;;14.36;35.69;93786.59;5050085;28;19990;-60
2023/03/27 05:03:13;;;;;;;;;;;;;;;14.67;34.08;93749.66;5037571;28;19982;-61
2023/03/27 05:05:53;;;;;;;;;;;;;;;13.66;34.13;93804.22;5049613;28;20467;-61
2023/03/27 05:08:20;;;;;;;;;;;;;;;14.10;34.46;93719.88;5052764;28;19956;-70
2023/03/27 05:10:47;;;;;;;;;;;;;;;14.56;33.87;93735.97;5051931;28;20388;-69
2023/03/27 05:13:14;;;;;;;;;;;;;;;14.64;31.29;93745.75;5051065;28;19928;-68
2023/03/27 05:15:40;;;;;;;;;;;;;;;13.91;33.34;93769.34;5052092;28;19921;-70
2023/03/27 05:18:11;;;;;;;;;;;;;;;14.23;32.97;93740.06;5050123;28;19921;-68
2023/03/27 05:20:38;;;;;;;;;;;;;;;14.76;33.39;93726.72;5050806;28;20449;-68
2023/03/27 05:23:07;;;;;;;;;;;;;;;15.08;32.38;93750.00;5050685;28;19925;-65
2023/03/27 05:25:38;;;;;;;;;;;;;;;14.38;31.84;93742.28;5051292;28;19924;-65
2023/03/27 05:28:10;;;;;;;;;;;;;;;15.17;31.84;93696.16;5050061;28;19920;-69
2023/03/27 05:30:36;;;;;;;;;;;;;;;14.96;31.53;93707.66;5050574;28;19978;-67
2023/03/27 05:33:15;;;;;;;;;;;;;;;15.45;29.68;93685.25;5050402;28;19975;-68
2023/03/27 05:35:47;;;;;;;;;;;;;;;15.67;29.98;93692.97;5049983;28;19924;-69
2023/03/27 05:38:14;;;;;;;;;;;;;;;15.68;30.32;93681.31;5050494;28;19924;-67
2023/03/27 05:40:52;;;;;;;;;;;;;;;15.71;30.99;93667.50;5049191;28;20319;-70
2023/03/27 05:43:20;;;;;;;;;;;;;;;15.85;30.69;93668.06;5050399;28;19927;-70
2023/03/27 05:45:48;;;;;;;;;;;;;;;15.77;30.73;93623.94;5051860;28;19935;-68
2023/03/27 05:48:15;;;;;;;;;;;;;;;15.84;30.14;93640.06;5049968;28;19984;-69
2023/03/27 05:50:43;;;;;;;;;;;;;;;15.91;29.73;93624.53;5051549;28;19928;-69
2023/03/27 05:53:18;;;;;;;;;;;;;;;15.86;29.76;93601.69;5050125;28;19934;-70
2023/03/27 05:55:57;;;;;;;;;;;;;;;15.95;30.05;93583.16;5049883;28;19921;-67
2023/03/27 05:58:37;;;;;;;;;;;;;;;16.05;29.79;93585.44;5036384;28;20363;-67
2023/03/27 06:01:04;;;;;;;;;;;;;;;16.14;29.82;93570.28;5044933;28;20208;-70
2023/03/27 06:03:34;;;;;;;;;;;;;;;16.39;29.78;93582.53;5049870;28;20003;-67
2023/03/27 06:06:09;;;;;;;;;;;;;;;16.43;30.38;93562.31;5049611;28;20383;-69
2023/03/27 06:08:37;;;;;;;;;;;;;;;16.44;30.50;93526.81;5050065;28;19929;-68
2023/03/27 06:11:08;;;;;;;;;;;;;;;15.92;29.86;93544.16;5049494;28;19924;-69
2023/03/27 06:13:41;;;;;;;;;;;;;;;16.20;30.28;93495.03;5039424;28;20092;-70
2023/03/27 06:16:10;;;;;;;;;;;;;;;15.93;29.98;93471.78;5049577;28;19956;-68
2023/03/27 06:18:43;;;;;;;;;;;;;;;15.70;30.36;93497.69;5051086;28;19928;-68
2023/03/27 06:21:12;;;;;;;;;;;;;;;16.36;29.79;93476.69;5049387;28;20342;-69
2023/03/27 06:23:39;;;;;;;;;;;;;;;16.14;30.73;93481.22;5049917;28;19963;-68
2023/03/27 06:26:11;;;;;;;;;;;;;;;15.67;30.26;93524.75;5049096;28;20027;-69
2023/03/27 06:28:38;;;;;;;;;;;;;;;15.94;29.88;93502.34;5051217;28;19921;-70
2023/03/27 06:31:05;;;;;;;;;;;;;;;15.88;29.74;93524.78;5049319;28;19924;-69
2023/03/27 06:33:38;;;;;;;;;;;;;;;16.16;29.64;93520.53;5050246;28;19924;-71
2023/03/27 06:36:09;;;;;;;;;;;;;;;16.12;29.96;93496.63;5033099;28;20534;-68
2023/03/27 06:38:39;;;;;;;;;;;;;;;16.05;31.09;93524.66;5049209;28;19971;-70
2023/03/27 06:41:06;;;;;;;;;;;;;;;16.15;31.22;93518.97;5049390;28;19932;-71
2023/03/27 06:43:53;;;;;;;;;;;;;;;16.00;31.39;93522.22;5028884;28;19994;-69
2023/03/27 06:46:42;;;;;;;;;;;;;;;16.22;30.74;93550.97;5020953;28;20284;-68
2023/03/27 06:49:15;;;;;;;;;;;;;;;16.24;31.31;93523.09;5049596;28;19921;-68
2023/03/27 06:51:42;;;;;;;;;;;;;;;16.39;31.43;93518.31;5047979;28;20398;-69
2023/03/27 06:54:12;;;;;;;;;;;;;;;16.16;30.64;93539.03;5049605;28;20398;-69
2023/03/27 06:56:43;;;;;;;;;;;;;;;16.54;30.69;93517.75;5048316;28;19963;-68
2023/03/27 06:59:16;;;;;;;;;;;;;;;16.88;29.96;93528.00;5049256;28;19927;-68
2023/03/27 07:01:46;;;;;;;;;;;;;;;16.54;30.38;93539.69;5049046;28;19921;-70
2023/03/27 07:04:36;;;;;;;;;;;;;;;16.95;29.88;93536.94;5030763;28;19920;-69
2023/03/27 07:07:13;;;;;;;;;;;;;;;16.62;30.20;93543.38;5035929;28;19924;-68
2023/03/27 07:09:41;;;;;;;;;;;;;;;17.01;30.17;93538.28;5048815;28;19924;-68
2023/03/27 07:12:12;;;;;;;;;;;;;;;17.47;29.69;93536.38;5049784;28;19931;-70
2023/03/27 07:14:40;;;;;;;;;;;;;;;17.56;29.08;93529.13;5049293;28;20039;-68
2023/03/27 07:17:07;;;;;;;;;;;;;;;17.95;29.25;93520.50;5049678;28;19920;-68
2023/03/27 07:19:53;;;;;;;;;;;;;;;18.06;29.14;93526.88;5048526;28;19978;-68
2023/03/27 07:22:23;;;;;;;;;;;;;;;18.37;28.86;93520.94;5048343;28;19931;-68
2023/03/27 07:24:49;;;;;;;;;;;;;;;18.67;28.68;93512.34;5032489;28;19925;-70
2023/03/27 07:27:17;;;;;;;;;;;;;;;19.08;28.19;93503.97;5047620;28;19932;-69
2023/03/27 07:29:45;;;;;;;;;;;;;;;19.11;28.86;93513.91;5048344;28;19928;-68
2023/03/27 07:32:16;;;;;;;;;;;;;;;19.10;27.54;93522.94;5047608;28;20048;-69
2023/03/27 07:35:04;;;;;;;;;;;;;;;19.37;27.34;93531.25;5048608;28;19924;-68
2023/03/27 07:38:09;;;;;;;;;;;;;;;19.26;27.01;93524.84;5006684;28;20364;-68
2023/03/27 07:40:37;;;;;;;;;;;;;;;19.42;28.10;93512.38;4991101;28;19922;-67
2023/03/27 07:43:26;;;;;;;;;;;;;;;19.18;26.70;93530.00;4992266;28;19925;-70
2023/03/27 07:45:54;;;;;;;;;;;;;;;19.09;26.53;93516.13;5047897;28;20654;-69
2023/03/27 07:48:23;;;;;;;;;;;;;;;18.76;26.56;93530.75;5048167;28;19921;-69
2023/03/27 07:50:50;;;;;;;;;;;;;;;19.05;27.31;93525.09;5047990;28;20071;-71
2023/03/27 07:53:25;;;;;;;;;;;;;;;18.92;28.67;93531.59;5048341;28;19924;-71
2023/03/27 07:56:22;;;;;;;;;;;;;;;18.74;29.27;93525.06;5048223;28;19944;-68
2023/03/27 07:59:07;;;;;;;;;;;;;;;18.90;29.08;93518.63;5051327;28;19928;-67
2023/03/27 08:01:34;;;;;;;;;;;;;;;18.54;29.55;93510.84;5042431;28;20016;-70
2023/03/27 08:04:02;;;;;;;;;;;;;;;18.74;29.89;93515.19;5041555;28;19921;-70
2023/03/27 08:06:32;;;;;;;;;;;;;;;18.94;29.19;93506.25;5051803;28;20338;-70
2023/03/27 08:09:00;;;;;;;;;;;;;;;18.93;29.37;93478.16;5052795;28;19959;-71
2023/03/27 08:11:29;;;;;;;;;;;;;;;18.67;30.66;93477.84;5051964;28;19928;-70
2023/03/27 08:13:57;;;;;;;;;;;;;;;18.47;30.66;93500.06;5052099;28;19952;-70
2023/03/27 08:16:28;;;;;;;;;;;;;;;18.72;30.57;93474.94;5051761;28;19928;-71
2023/03/27 08:18:57;;;;;;;;;;;;;;;18.88;30.67;93477.66;5052236;28;19942;-71
2023/03/27 08:21:25;;;;;;;;;;;;;;;18.99;30.63;93482.13;5053169;28;20533;-69
2023/03/27 08:23:54;;;;;;;;;;;;;;;18.91;30.31;93487.56;5060613;28;20031;-67
2023/03/27 08:26:32;;;;;;;;;;;;;;;18.85;30.70;93473.78;5053635;28;19927;-70
2023/03/27 08:29:02;;;;;;;;;;;;;;;18.82;31.08;93458.53;5052048;28;20505;-72
2023/03/27 08:31:30;;;;;;;;;;;;;;;18.89;31.04;93477.31;5050845;28;19924;-68
2023/03/27 08:33:59;;;;;;;;;;;;;;;18.92;31.06;93457.28;5052007;28;19927;-70
2023/03/27 08:36:35;;;;;;;;;;;;;;;18.98;31.06;93461.19;5051365;28;19924;-69
2023/03/27 08:39:03;;;;;;;;;;;;;;;19.04;30.29;93444.69;5051219;28;19920;-70
2023/03/27 08:41:57;;;;;;;;;;;;;;;19.01;30.19;93463.94;5050885;28;19928;-69
2023/03/27 08:44:30;;;;;;;;;;;;;;;18.88;29.37;93494.34;5052099;28;20015;-67
2023/03/27 08:47:03;;;;;;;;;;;;;;;18.94;28.19;93492.97;5051450;28;19946;-68
2023/03/27 08:49:46;;;;;;;;;;;;;;;18.47;29.08;93517.84;5051494;28;20059;-68
2023/03/27 08:52:36;;;;;;;;;;;;;;;18.41;28.40;93506.69;5052676;28;19925;-67
2023/03/27 08:55:13;;;;;;;;;;;;;;;18.34;28.54;93521.63;5052125;28;19935;-69
2023/03/27 08:57:49;;;;;;;;;;;;;;;18.43;28.50;93483.25;5051741;28;20125;-67
2023/03/27 09:00:22;;;;;;;;;;;;;;;18.91;27.82;93458.38;5052118;28;19979;-70
2023/03/27 09:03:13;;;;;;;;;;;;;;;19.18;28.32;93434.41;5050664;28;19928;-68
2023/03/27 09:05:48;;;;;;;;;;;;;;;19.46;27.76;93414.97;5039417;28;19932;-70
2023/03/27 09:08:21;;;;;;;;;;;;;;;19.38;27.79;93400.00;5051151;28;19926;-70
2023/03/27 09:10:50;;;;;;;;;;;;;;;19.38;28.06;93410.63;5047516;28;19967;-71
2023/03/27 09:13:33;;;;;;;;;;;;;;;19.56;27.75;93409.13;5046230;28;19932;-69
2023/03/27 09:16:14;;;;;;;;;;;;;;;19.52;27.69;93394.97;5044689;28;20485;-70
2023/03/27 09:18:55;;;;;;;;;;;;;;;19.47;27.74;93408.53;5052369;28;19924;-69
2023/03/27 09:21:28;;;;;;;;;;;;;;;19.75;26.99;93422.44;5050192;28;20465;-70
2023/03/27 09:24:01;;;;;;;;;;;;;;;19.29;26.88;93445.28;5051152;28;19964;-69
2023/03/27 09:26:48;;;;;;;;;;;;;;;19.63;26.43;93438.50;5051856;28;19987;-70
2023/03/27 09:29:43;;;;;;;;;;;;;;;18.76;27.39;93467.09;5053610;28;19920;-68
2023/03/27 09:32:28;;;;;;;;;;;;;;;18.92;27.95;93478.50;5057282;28;19931;-71
2023/03/27 09:35:00;;;;;;;;;;;;;;;18.54;28.36;93472.97;5054215;28;20027;-70
2023/03/27 09:37:27;;;;;;;;;;;;;;;17.84;29.14;93482.31;5049801;28;20015;-71
2023/03/27 09:39:57;;;;;;;;;;;;;;;19.00;28.25;93453.66;5053314;28;19932;-68
2023/03/27 09:42:29;;;;;;;;;;;;;;;19.05;28.38;93451.53;5047337;28;19927;-70
2023/03/27 09:44:59;;;;;;;;;;;;;;;18.64;29.62;93457.31;5031771;28;19979;-69
2023/03/27 09:47:32;;;;;;;;;;;;;;;19.21;29.12;93447.00;5050231;28;19924;-70
2023/03/27 09:50:15;;;;;;;;;;;;;;;19.28;29.78;93442.97;5050838;28;19963;-68
2023/03/27 09:53:05;;;;;;;;;;;;;;;18.64;29.97;93452.00;5049692;28;19921;-68
2023/03/27 09:56:02;;;;;;;;;;;;;;;18.52;29.72;93444.09;5050751;28;19925;-67
2023/03/27 09:58:39;;;;;;;;;;;;;;;19.40;29.03;93422.41;5035010;28;20015;-69
2023/03/27 10:01:18;;;;;;;;;;;;;;;19.67;29.24;93413.53;5045290;28;20387;-69
2023/03/27 10:03:51;;;;;;;;;;;;;;;19.67;28.51;93410.13;5050466;28;20039;-69
2023/03/27 10:06:43;;;;;;;;;;;;;;;19.49;28.80;93414.28;5049276;28;19955;-69
2023/03/27 10:09:25;;;;;;;;;;;;;;;19.38;28.81;93427.31;5050208;28;19931;-67
2023/03/27 10:12:06;;;;;;;;;;;;;;;19.69;28.29;93437.13;5049294;28;19928;-69
2023/03/27 10:14:37;;;;;;;;;;;;;;;19.78;28.45;93451.00;5050220;28;19983;-68
2023/03/27 10:17:04;;;;;;;;;;;;;;;18.70;29.45;93466.56;5049413;28;19979;-69
2023/03/27 10:19:35;;;;;;;;;;;;;;;18.58;29.92;93469.28;5050243;28;19947;-68
2023/03/27 10:22:17;;;;;;;;;;;;;;;19.00;28.86;93451.78;5049434;28;19936;-67
2023/03/27 10:24:47;;;;;;;;;;;;;;;17.91;30.68;93472.69;5050238;28;19925;-67
2023/03/27 10:27:46;;;;;;;;;;;;;;;17.97;30.55;93446.72;5048415;28;19944;-68
2023/03/27 10:30:36;;;;;;;;;;;;;;;18.39;30.66;93461.19;5049693;28;19935;-68
2023/03/27 10:33:28;;;;;;;;;;;;;;;18.44;30.09;93460.94;5050855;28;19921;-71
2023/03/27 10:36:08;;;;;;;;;;;;;;;18.85;29.58;93447.25;5049111;28;20007;-70
2023/03/27 10:38:37;;;;;;;;;;;;;;;19.35;28.72;93433.31;5050406;28;20296;-67
2023/03/27 10:41:32;;;;;;;;;;;;;;;19.45;28.82;93426.72;5026561;28;20430;-69
2023/03/27 10:44:00;;;;;;;;;;;;;;;19.19;29.37;93433.31;5049306;28;19920;-70
2023/03/27 10:46:27;;;;;;;;;;;;;;;19.63;28.92;93417.25;5049438;28;19929;-68
2023/03/27 10:49:13;;;;;;;;;;;;;;;20.01;28.77;93402.13;5037070;28;19921;-69
2023/03/27 10:51:47;;;;;;;;;;;;;;;19.93;28.72;93375.72;5050297;28;19925;-67
2023/03/27 10:54:33;;;;;;;;;;;;;;;20.18;28.66;93361.81;5049274;28;20360;-69
2023/03/27 10:57:08;;;;;;;;;;;;;;;20.25;28.57;93347.91;5038772;28;19978;-68
2023/03/27 10:59:49;;;;;;;;;;;;;;;20.08;28.70;93327.03;5049048;28;20298;-68
2023/03/27 11:02:37;;;;;;;;;;;;;;;20.00;29.02;93320.03;5049360;28;20065;-69
2023/03/27 11:05:08;;;;;;;;;;;;;;;19.78;28.94;93336.72;5049180;28;19952;-66
2023/03/27 11:07:43;;;;;;;;;;;;;;;20.04;28.86;93337.59;5048725;28;19932;-69
2023/03/27 11:10:17;;;;;;;;;;;;;;;19.86;28.35;93338.38;5049106;28;19925;-67
2023/03/27 11:12:50;;;;;;;;;;;;;;;19.97;28.31;93342.00;5048139;28;19927;-68
2023/03/27 11:15:21;;;;;;;;;;;;;;;19.87;28.81;93347.91;5036842;28;19932;-69
2023/03/27 11:18:09;;;;;;;;;;;;;;;19.44;29.76;93366.72;5048448;28;19951;-67
2023/03/27 11:20:46;;;;;;;;;;;;;;;19.45;30.99;93390.28;5040271;28;19992;-67
2023/03/27 11:23:32;;;;;;;;;;;;;;;18.84;33.36;93391.84;5037900;28;20619;-68
2023/03/27 11:26:14;;;;;;;;;;;;;;;18.77;33.98;93392.47;5049234;28;19931;-68
2023/03/27 11:28:51;;;;;;;;;;;;;;;18.48;34.38;93440.59;5048398;28;19954;-67
2023/03/27 11:31:24;;;;;;;;;;;;;;;17.49;37.42;93452.09;5028537;28;19921;-70
2023/03/27 11:33:53;;;;;;;;;;;;;;;17.22;37.82;93470.16;5041129;28;19956;-70
2023/03/27 11:36:39;;;;;;;;;;;;;;;17.61;37.42;93468.75;5048374;28;19928;-69
2023/03/27 11:39:25;;;;;;;;;;;;;;;18.50;36.08;93467.56;5048571;28;19978;-70
2023/03/27 11:41:56;;;;;;;;;;;;;;;18.19;37.28;93478.03;5047749;28;19928;-70
2023/03/27 11:44:24;;;;;;;;;;;;;;;18.06;37.65;93471.22;5050013;28;19921;-69
2023/03/27 11:47:23;;;;;;;;;;;;;;;18.20;37.39;93469.75;5048642;28;19921;-68
2023/03/27 11:49:55;;;;;;;;;;;;;;;18.17;37.84;93469.66;5048941;28;19920;-69
2023/03/27 11:52:37;;;;;;;;;;;;;;;17.66;38.56;93475.72;5048023;28;20375;-68
2023/03/27 11:55:09;;;;;;;;;;;;;;;17.47;38.41;93473.63;5049450;28;19928;-71
2023/03/27 11:57:49;;;;;;;;;;;;;;;17.00;40.29;93485.72;5048046;28;19978;-69
2023/03/27 12:00:30;;;;;;;;;;;;;;;17.37;39.57;93487.28;5050339;28;19921;-68
2023/03/27 12:02:57;;;;;;;;;;;;;;;16.71;41.94;93515.75;5048186;28;20023;-65
2023/03/27 12:05:49;;;;;;;;;;;;;;;16.58;43.66;93518.66;5048306;28;20367;-67
2023/03/27 12:08:36;;;;;;;;;;;;;;;16.29;44.94;93550.44;5048011;28;20571;-67
2023/03/27 12:11:06;;;;;;;;;;;;;;;14.91;47.27;93581.97;5038329;28;20315;-67
2023/03/27 12:13:48;;;;;;;;;;;;;;;14.26;49.08;93610.34;5035569;28;19924;-66
2023/03/27 12:16:39;;;;;;;;;;;;;;;13.91;50.47;93621.91;5047799;28;19925;-69
2023/03/27 12:19:12;;;;;;;;;;;;;;;14.13;50.14;93627.06;5048418;28;19947;-67
2023/03/27 12:22:30;;;;;;;;;;;;;;;13.34;52.89;93628.19;5039460;28;19925;-68
2023/03/27 12:25:18;;;;;;;;;;;;;;;13.27;52.63;93638.34;5036066;28;19921;-72
2023/03/27 12:27:58;;;;;;;;;;;;;;;12.98;53.85;93644.84;5049181;28;19921;-68
2023/03/27 12:30:55;;;;;;;;;;;;;;;13.26;53.13;93647.34;5047732;28;20315;-69
2023/03/27 12:33:26;;;;;;;;;;;;;;;12.55;54.31;93643.75;5047873;28;19971;-68
2023/03/27 12:35:56;;;;;;;;;;;;;;;13.31;52.56;93645.34;5047543;28;19920;-66
2023/03/27 12:38:28;;;;;;;;;;;;;;;12.60;53.77;93648.88;5047825;28;19928;-69
2023/03/27 12:41:02;;;;;;;;;;;;;;;12.16;53.37;93640.94;5034958;28;19920;-71
2023/03/27 12:43:43;;;;;;;;;;;;;;;12.79;53.48;93628.44;5047919;28;20089;-69
2023/03/27 12:46:29;;;;;;;;;;;;;;;12.54;53.11;93621.16;5047547;28;20383;-69
2023/03/27 12:48:58;;;;;;;;;;;;;;;12.63;52.55;93608.88;5049445;28;19921;-68
2023/03/27 12:51:55;;;;;;;;;;;;;;;13.06;52.02;93588.91;5050867;28;19971;-69
2023/03/27 12:54:41;;;;;;;;;;;;;;;13.03;51.82;93576.38;5051079;28;19932;-68
2023/03/27 12:57:43;;;;;;;;;;;;;;;14.03;50.39;93548.34;4990205;28;19932;-68
2023/03/27 13:00:18;;;;;;;;;;;;;;;14.25;50.40;93517.34;5037794;28;20388;-69
2023/03/27 13:02:47;;;;;;;;;;;;;;;14.63;50.91;93488.53;5050785;28;19924;-68
2023/03/27 13:05:33;;;;;;;;;;;;;;;14.66;48.61;93503.69;5051276;28;20015;-68
2023/03/27 13:08:23;;;;;;;;;;;;;;;14.86;49.56;93492.47;5050520;28;19925;-70
2023/03/27 13:11:26;;;;;;;;;;;;;;;15.10;49.80;93466.31;5050556;28;20040;-68
2023/03/27 13:14:12;;;;;;;;;;;;;;;15.27;49.97;93449.66;5033041;28;20023;-68
2023/03/27 13:16:58;;;;;;;;;;;;;;;15.25;49.52;93443.91;5050813;28;19925;-70
2023/03/27 13:19:35;;;;;;;;;;;;;;;15.43;50.04;93434.03;5050925;28;19928;-68
2023/03/27 13:22:28;;;;;;;0.10;0.10;;;;;;;15.51;49.88;93431.34;5042664;28;20475;-69
2023/03/27 13:25:42;;;;;;;0.00;0.00;;;;;;;15.86;49.54;93432.66;5046225;28;20208;-69
2023/03/27 13:28:12;;;;;;;0.00;0.00;;;;;;;15.96;49.74;93437.56;5034611;28;20455;-68